Time,TemperatureF,DewpointF,PressureIn,WindDirection,WindDirectionDegrees,WindSpeedMPH,WindSpeedGustMPH,Humidity,HourlyPrecipIn,Conditions,Clouds,dailyrainin,SolarRadiationWatts/m^2,SoftwareType,DateUTC
2013-02-14 00:01:00,28.0,19.0,-100.00,North,0,0.0,0.0,68,-99.99,,,0.00,0.000000,,2013-02-14 08:01:00,
2013-02-14 00:11:00,28.0,19.0,-100.00,North,0,0.0,0.0,68,-99.99,,,0.00,0.000000,,2013-02-14 08:11:00,
2013-02-14 00:43:00,27.0,19.0,-100.00,West,268,1.0,2.0,70,-99.99,,,0.00,0.000000,,2013-02-14 08:43:00,
2013-02-14 00:52:00,27.0,19.0,-100.00,West,268,1.0,2.0,70,-99.99,,,0.00,0.000000,,2013-02-14 08:52:00,
2013-02-14 01:01:00,27.0,19.0,-100.00,West,268,1.0,2.0,70,-99.99,,,0.00,0.000000,,2013-02-14 09:01:00,
2013-02-14 01:11:00,27.0,19.0,-100.00,West,268,1.0,2.0,70,-99.99,,,0.00,0.000000,,2013-02-14 09:11:00,
2013-02-14 01:41:00,26.0,19.0,-100.00,NNW,336,2.0,3.0,72,-99.99,,,0.00,0.000000,,2013-02-14 09:41:00,
2013-02-14 01:52:00,26.0,19.0,-100.00,NNW,336,2.0,3.0,72,-99.99,,,0.00,0.000000,,2013-02-14 09:52:00,
2013-02-14 02:02:00,26.0,19.0,-100.00,NNW,336,2.0,3.0,72,-99.99,,,0.00,0.000000,,2013-02-14 10:02:00,
2013-02-14 02:11:00,26.0,19.0,-100.00,NNW,336,2.0,3.0,72,-99.99,,,0.00,0.000000,,2013-02-14 10:11:00,
2013-02-14 02:42:00,23.0,17.0,-100.00,WNW,285,1.0,2.0,74,-99.99,,,0.00,0.000000,,2013-02-14 10:42:00,
2013-02-14 02:52:00,23.0,17.0,-100.00,WNW,285,1.0,2.0,74,-99.99,,,0.00,0.000000,,2013-02-14 10:52:00,
2013-02-14 03:01:00,23.0,17.0,-100.00,WNW,285,1.0,2.0,74,-99.99,,,0.00,0.000000,,2013-02-14 11:01:00,
2013-02-14 03:11:00,23.0,17.0,-100.00,WNW,285,1.0,2.0,74,-99.99,,,0.00,0.000000,,2013-02-14 11:11:00,
2013-02-14 03:42:00,22.0,16.0,-100.00,WSW,254,0.0,1.0,76,-99.99,,,0.00,0.000000,,2013-02-14 11:42:00,
2013-02-14 03:52:00,22.0,16.0,-100.00,WSW,254,0.0,1.0,76,-99.99,,,0.00,0.000000,,2013-02-14 11:52:00,
2013-02-14 04:01:00,22.0,16.0,-100.00,WSW,254,0.0,1.0,76,-99.99,,,0.00,0.000000,,2013-02-14 12:01:00,
2013-02-14 04:11:00,22.0,16.0,-100.00,WSW,254,0.0,1.0,76,-99.99,,,0.00,0.000000,,2013-02-14 12:11:00,
2013-02-14 04:42:00,21.0,16.0,-100.00,SE,129,1.0,3.0,78,-99.99,,,0.00,0.000000,,2013-02-14 12:42:00,
2013-02-14 04:53:00,21.0,16.0,-100.00,SE,129,1.0,3.0,78,-99.99,,,0.00,0.000000,,2013-02-14 12:53:00,
2013-02-14 05:01:00,21.0,16.0,-100.00,SE,129,1.0,3.0,78,-99.99,,,0.00,0.000000,,2013-02-14 13:01:00,
2013-02-14 05:11:00,21.0,16.0,-100.00,SE,129,1.0,3.0,78,-99.99,,,0.00,0.000000,,2013-02-14 13:11:00,
2013-02-14 06:41:00,20.0,15.0,-100.00,ENE,61,1.0,3.0,81,-99.99,,,0.00,0.000000,,2013-02-14 14:41:00,
2013-02-14 06:52:00,20.0,15.0,-100.00,ENE,61,1.0,3.0,81,-99.99,,,0.00,0.000000,,2013-02-14 14:52:00,
2013-02-14 07:01:00,20.0,15.0,-100.00,ENE,61,1.0,3.0,81,-99.99,,,0.00,0.000000,,2013-02-14 15:01:00,
2013-02-14 07:11:00,20.0,15.0,-100.00,ENE,61,1.0,3.0,81,-99.99,,,0.00,0.000000,,2013-02-14 15:11:00,
2013-02-14 07:41:00,22.0,17.0,-100.00,North,355,2.0,3.0,81,-99.99,,,0.00,39.980000,,2013-02-14 15:41:00,
2013-02-14 07:52:00,22.0,17.0,-100.00,North,355,2.0,3.0,81,-99.99,,,0.00,39.980000,,2013-02-14 15:52:00,
2013-02-14 08:01:00,22.0,17.0,-100.00,North,355,2.0,3.0,81,-99.99,,,0.00,39.980000,,2013-02-14 16:01:00,
2013-02-14 08:11:00,22.0,17.0,-100.00,North,355,2.0,3.0,81,-99.99,,,0.00,39.980000,,2013-02-14 16:11:00,
2013-02-14 08:41:00,30.0,22.0,-100.00,WSW,249,2.0,4.0,69,-99.99,,,0.00,222.449997,,2013-02-14 16:41:00,
2013-02-14 08:52:00,30.0,22.0,-100.00,WSW,249,2.0,4.0,69,-99.99,,,0.00,222.449997,,2013-02-14 16:52:00,
2013-02-14 09:01:00,30.0,22.0,-100.00,WSW,249,2.0,4.0,69,-99.99,,,0.00,222.449997,,2013-02-14 17:01:00,
2013-02-14 09:11:00,30.0,22.0,-100.00,WSW,249,2.0,4.0,69,-99.99,,,0.00,222.449997,,2013-02-14 17:11:00,
2013-02-14 09:41:00,39.0,24.0,-100.00,WSW,254,3.0,6.0,55,-99.99,,,0.00,389.690002,,2013-02-14 17:41:00,
2013-02-14 09:52:00,39.0,24.0,-100.00,WSW,254,3.0,6.0,55,-99.99,,,0.00,389.690002,,2013-02-14 17:52:00,
2013-02-14 10:01:00,39.0,24.0,-100.00,WSW,254,3.0,6.0,55,-99.99,,,0.00,389.690002,,2013-02-14 18:01:00,
2013-02-14 10:11:00,39.0,24.0,-100.00,WSW,254,3.0,6.0,55,-99.99,,,0.00,389.690002,,2013-02-14 18:11:00,
2013-02-14 10:41:00,44.0,26.0,-100.00,North,0,8.0,14.0,48,-99.99,,,0.00,526.239990,,2013-02-14 18:41:00,
2013-02-14 10:52:00,44.0,26.0,-100.00,North,0,8.0,14.0,48,-99.99,,,0.00,526.239990,,2013-02-14 18:52:00,
2013-02-14 11:01:00,44.0,26.0,-100.00,North,0,8.0,14.0,48,-99.99,,,0.00,526.239990,,2013-02-14 19:01:00,
2013-02-14 11:11:00,44.0,26.0,-100.00,North,0,8.0,14.0,48,-99.99,,,0.00,526.239990,,2013-02-14 19:11:00,
2013-02-14 11:41:00,47.0,27.0,-100.00,NNE,20,6.0,11.0,43,-99.99,,,0.00,616.200012,,2013-02-14 19:41:00,
2013-02-14 11:52:00,47.0,27.0,-100.00,NNE,20,6.0,11.0,43,-99.99,,,0.00,616.200012,,2013-02-14 19:52:00,
2013-02-14 12:01:00,47.0,27.0,-100.00,NNE,20,6.0,11.0,43,-99.99,,,0.00,616.200012,,2013-02-14 20:01:00,
2013-02-14 12:11:00,47.0,27.0,-100.00,NNE,20,6.0,11.0,43,-99.99,,,0.00,616.200012,,2013-02-14 20:11:00,
2013-02-14 12:41:00,50.0,27.0,-100.00,NNE,27,4.0,11.0,39,-99.99,,,0.00,648.859985,,2013-02-14 20:41:00,
2013-02-14 12:52:00,50.0,27.0,-100.00,NNE,27,4.0,11.0,39,-99.99,,,0.00,648.859985,,2013-02-14 20:52:00,
2013-02-14 13:02:00,50.0,27.0,-100.00,NNE,27,4.0,11.0,39,-99.99,,,0.00,648.859985,,2013-02-14 21:02:00,
2013-02-14 13:11:00,50.0,27.0,-100.00,NNE,27,4.0,11.0,39,-99.99,,,0.00,648.859985,,2013-02-14 21:11:00,
2013-02-14 13:41:00,51.0,27.0,-100.00,North,4,4.0,10.0,38,-99.99,,,0.00,619.799988,,2013-02-14 21:41:00,
2013-02-14 13:52:00,51.0,27.0,-100.00,North,4,4.0,10.0,38,-99.99,,,0.00,619.799988,,2013-02-14 21:52:00,
2013-02-14 14:02:00,51.0,27.0,-100.00,North,4,4.0,10.0,38,-99.99,,,0.00,619.799988,,2013-02-14 22:02:00,
2013-02-14 14:11:00,51.0,27.0,-100.00,North,4,4.0,10.0,38,-99.99,,,0.00,619.799988,,2013-02-14 22:11:00,
2013-02-14 14:41:00,53.0,27.0,-100.00,NNE,21,5.0,11.0,35,-99.99,,,0.00,530.539978,,2013-02-14 22:41:00,
2013-02-14 14:52:00,53.0,27.0,-100.00,NNE,21,5.0,11.0,35,-99.99,,,0.00,530.539978,,2013-02-14 22:52:00,
2013-02-14 15:01:00,53.0,27.0,-100.00,NNE,21,5.0,11.0,35,-99.99,,,0.00,530.539978,,2013-02-14 23:01:00,
2013-02-14 15:11:00,53.0,27.0,-100.00,NNE,21,5.0,11.0,35,-99.99,,,0.00,530.539978,,2013-02-14 23:11:00,
2013-02-14 15:41:00,53.0,26.0,-100.00,NNE,25,6.0,10.0,34,-99.99,,,0.00,394.679993,,2013-02-14 23:41:00,
2013-02-14 15:52:00,53.0,26.0,-100.00,NNE,25,6.0,10.0,34,-99.99,,,0.00,394.679993,,2013-02-14 23:52:00,
2013-02-14 16:01:00,53.0,26.0,-100.00,NNE,25,6.0,10.0,34,-99.99,,,0.00,394.679993,,2013-02-15 00:01:00,
2013-02-14 16:11:00,53.0,26.0,-100.00,NNE,25,6.0,10.0,34,-99.99,,,0.00,394.679993,,2013-02-15 00:11:00,
2013-02-14 16:41:00,53.0,26.0,-100.00,NNE,16,6.0,12.0,34,-99.99,,,0.00,229.300003,,2013-02-15 00:41:00,
2013-02-14 16:52:00,53.0,26.0,-100.00,NNE,16,6.0,12.0,34,-99.99,,,0.00,229.300003,,2013-02-15 00:52:00,
2013-02-14 17:01:00,53.0,26.0,-100.00,NNE,16,6.0,12.0,34,-99.99,,,0.00,229.300003,,2013-02-15 01:01:00,
2013-02-14 17:11:00,53.0,26.0,-100.00,NNE,16,6.0,12.0,34,-99.99,,,0.00,229.300003,,2013-02-15 01:11:00,
2013-02-14 18:31:00,46.0,24.0,-100.00,NNE,24,3.0,5.0,41,-99.99,,,0.00,0.120000,,2013-02-15 02:31:00,
2013-02-14 18:41:00,46.0,24.0,-100.00,NNE,24,3.0,5.0,41,-99.99,,,0.00,0.120000,,2013-02-15 02:41:00,
2013-02-14 18:52:00,46.0,24.0,-100.00,NNE,24,3.0,5.0,41,-99.99,,,0.00,0.120000,,2013-02-15 02:52:00,
2013-02-14 19:01:00,46.0,24.0,-100.00,NNE,24,3.0,5.0,41,-99.99,,,0.00,0.120000,,2013-02-15 03:01:00,
2013-02-14 19:11:00,46.0,24.0,-100.00,NNE,24,3.0,5.0,41,-99.99,,,0.00,0.120000,,2013-02-15 03:11:00,
2013-02-14 19:41:00,43.0,24.0,-100.00,North,1,2.0,4.0,47,-99.99,,,0.00,0.000000,,2013-02-15 03:41:00,
2013-02-14 19:52:00,43.0,24.0,-100.00,North,1,2.0,4.0,47,-99.99,,,0.00,0.000000,,2013-02-15 03:52:00,
2013-02-14 20:01:00,43.0,24.0,-100.00,North,1,2.0,4.0,47,-99.99,,,0.00,0.000000,,2013-02-15 04:01:00,
2013-02-14 20:11:00,43.0,24.0,-100.00,North,1,2.0,4.0,47,-99.99,,,0.00,0.000000,,2013-02-15 04:11:00,
2013-02-14 20:42:00,40.0,24.0,-100.00,NNW,339,2.0,3.0,52,-99.99,,,0.00,0.000000,,2013-02-15 04:42:00,
2013-02-14 20:52:00,40.0,24.0,-100.00,NNW,339,2.0,3.0,52,-99.99,,,0.00,0.000000,,2013-02-15 04:52:00,
2013-02-14 21:01:00,40.0,24.0,-100.00,NNW,339,2.0,3.0,52,-99.99,,,0.00,0.000000,,2013-02-15 05:01:00,
2013-02-14 21:11:00,40.0,24.0,-100.00,NNW,339,2.0,3.0,52,-99.99,,,0.00,0.000000,,2013-02-15 05:11:00,
2013-02-14 21:41:00,32.0,21.0,-100.00,East,94,1.0,2.0,63,-99.99,,,0.00,0.000000,,2013-02-15 05:41:00,
2013-02-14 21:52:00,32.0,21.0,-100.00,East,94,1.0,2.0,63,-99.99,,,0.00,0.000000,,2013-02-15 05:52:00,
2013-02-14 22:01:00,32.0,21.0,-100.00,East,94,1.0,2.0,63,-99.99,,,0.00,0.000000,,2013-02-15 06:01:00,
2013-02-14 22:11:00,32.0,21.0,-100.00,East,94,1.0,2.0,63,-99.99,,,0.00,0.000000,,2013-02-15 06:11:00,
2013-02-14 22:42:00,34.0,22.0,-100.00,North,352,4.0,5.0,62,-99.99,,,0.00,0.000000,,2013-02-15 06:42:00,
2013-02-14 22:52:00,34.0,22.0,-100.00,North,352,4.0,5.0,62,-99.99,,,0.00,0.000000,,2013-02-15 06:52:00,
2013-02-14 23:01:00,34.0,22.0,-100.00,North,352,4.0,5.0,62,-99.99,,,0.00,0.000000,,2013-02-15 07:01:00,
2013-02-14 23:11:00,34.0,22.0,-100.00,North,352,4.0,5.0,62,-99.99,,,0.00,0.000000,,2013-02-15 07:11:00,
2013-02-14 23:41:00,29.0,20.0,-100.00,NW,311,3.0,4.0,69,-99.99,,,0.00,0.000000,,2013-02-15 07:41:00,
2013-02-14 23:52:00,29.0,20.0,-100.00,NW,311,3.0,4.0,69,-99.99,,,0.00,0.000000,,2013-02-15 07:52:00,